sensor_id;sensor_type;location;lat;lon;timestamp;P1;durP1;ratioP1;P2;durP2;ratioP2
37367;SDS011;23240;43.210;27.910;2022-09-30T00:01:40;10.95;;;4.82;;
37367;SDS011;23240;43.210;27.910;2022-09-30T00:04:05;10.32;;;4.93;;
37367;SDS011;23240;43.210;27.910;2022-09-30T00:06:33;10.35;;;5.05;;
37367;SDS011;23240;43.210;27.910;2022-09-30T00:08:59;9.75;;;5.20;;
37367;SDS011;23240;43.210;27.910;2022-09-30T00:11:27;11.77;;;5.45;;
37367;SDS011;23240;43.210;27.910;2022-09-30T00:13:54;8.85;;;5.05;;
37367;SDS011;23240;43.210;27.910;2022-09-30T00:16:22;8.40;;;4.03;;
37367;SDS011;23240;43.210;27.910;2022-09-30T00:18:49;11.70;;;5.70;;
37367;SDS011;23240;43.210;27.910;2022-09-30T00:21:15;21.20;;;7.07;;
37367;SDS011;23240;43.210;27.910;2022-09-30T00:23:41;10.00;;;4.97;;
37367;SDS011;23240;43.210;27.910;2022-09-30T00:26:11;9.10;;;4.95;;
37367;SDS011;23240;43.210;27.910;2022-09-30T00:28:41;11.23;;;5.45;;
37367;SDS011;23240;43.210;27.910;2022-09-30T00:31:10;11.82;;;5.55;;
37367;SDS011;23240;43.210;27.910;2022-09-30T00:33:38;10.73;;;5.13;;
37367;SDS011;23240;43.210;27.910;2022-09-30T00:36:04;11.35;;;5.28;;
37367;SDS011;23240;43.210;27.910;2022-09-30T00:38:30;10.10;;;4.85;;
37367;SDS011;23240;43.210;27.910;2022-09-30T00:40:55;13.00;;;5.53;;
37367;SDS011;23240;43.210;27.910;2022-09-30T00:48:44;14.63;;;5.50;;
37367;SDS011;23240;43.210;27.910;2022-09-30T00:51:17;6.55;;;3.85;;
37367;SDS011;23240;43.210;27.910;2022-09-30T00:53:53;21.60;;;5.38;;
37367;SDS011;23240;43.210;27.910;2022-09-30T00:56:23;11.02;;;4.90;;
37367;SDS011;23240;43.210;27.910;2022-09-30T00:58:57;14.82;;;5.72;;
37367;SDS011;23240;43.210;27.910;2022-09-30T01:01:43;11.35;;;5.50;;
37367;SDS011;23240;43.210;27.910;2022-09-30T01:04:13;11.25;;;5.57;;
37367;SDS011;23240;43.210;27.910;2022-09-30T01:06:40;12.05;;;5.93;;
37367;SDS011;23240;43.210;27.910;2022-09-30T01:09:06;10.93;;;5.22;;
37367;SDS011;23240;43.210;27.910;2022-09-30T01:11:33;9.60;;;4.47;;
37367;SDS011;23240;43.210;27.910;2022-09-30T01:14:00;7.88;;;4.28;;
37367;SDS011;23240;43.210;27.910;2022-09-30T01:16:42;14.02;;;5.85;;
37367;SDS011;23240;43.210;27.910;2022-09-30T01:19:41;11.10;;;5.32;;
37367;SDS011;23240;43.210;27.910;2022-09-30T01:36:42;12.07;;;6.40;;
37367;SDS011;23240;43.210;27.910;2022-09-30T01:39:32;11.93;;;5.15;;
37367;SDS011;23240;43.210;27.910;2022-09-30T01:42:24;13.70;;;7.15;;
37367;SDS011;23240;43.210;27.910;2022-09-30T01:45:11;15.50;;;7.18;;
37367;SDS011;23240;43.210;27.910;2022-09-30T01:50:15;11.70;;;6.28;;
37367;SDS011;23240;43.210;27.910;2022-09-30T01:52:43;15.73;;;7.63;;
37367;SDS011;23240;43.210;27.910;2022-09-30T01:58:17;12.20;;;6.40;;
37367;SDS011;23240;43.210;27.910;2022-09-30T02:00:51;16.48;;;6.95;;
37367;SDS011;23240;43.210;27.910;2022-09-30T02:05:59;15.32;;;6.82;;
37367;SDS011;23240;43.210;27.910;2022-09-30T02:11:26;14.73;;;6.75;;
37367;SDS011;23240;43.210;27.910;2022-09-30T02:14:28;17.17;;;7.78;;
37367;SDS011;23240;43.210;27.910;2022-09-30T02:16:58;13.57;;;7.05;;
37367;SDS011;23240;43.210;27.910;2022-09-30T02:19:29;9.95;;;5.35;;
37367;SDS011;23240;43.210;27.910;2022-09-30T02:22:06;14.63;;;6.85;;
37367;SDS011;23240;43.210;27.910;2022-09-30T02:24:39;12.30;;;6.68;;
37367;SDS011;23240;43.210;27.910;2022-09-30T02:27:11;17.27;;;7.90;;
37367;SDS011;23240;43.210;27.910;2022-09-30T02:29:42;20.67;;;7.38;;
37367;SDS011;23240;43.210;27.910;2022-09-30T02:32:23;17.02;;;7.20;;
37367;SDS011;23240;43.210;27.910;2022-09-30T02:35:01;14.68;;;7.18;;
37367;SDS011;23240;43.210;27.910;2022-09-30T02:37:33;24.52;;;8.57;;
37367;SDS011;23240;43.210;27.910;2022-09-30T02:40:05;18.27;;;8.50;;
37367;SDS011;23240;43.210;27.910;2022-09-30T02:42:36;18.70;;;8.85;;
37367;SDS011;23240;43.210;27.910;2022-09-30T02:45:10;21.10;;;10.30;;
37367;SDS011;23240;43.210;27.910;2022-09-30T02:58:37;14.73;;;5.63;;
37367;SDS011;23240;43.210;27.910;2022-09-30T03:01:12;12.52;;;6.05;;
37367;SDS011;23240;43.210;27.910;2022-09-30T03:03:49;12.18;;;6.10;;
37367;SDS011;23240;43.210;27.910;2022-09-30T03:06:17;14.10;;;6.70;;
37367;SDS011;23240;43.210;27.910;2022-09-30T03:08:44;13.07;;;6.40;;
37367;SDS011;23240;43.210;27.910;2022-09-30T03:11:12;13.82;;;6.32;;
37367;SDS011;23240;43.210;27.910;2022-09-30T03:40:16;18.42;;;8.23;;
37367;SDS011;23240;43.210;27.910;2022-09-30T03:42:47;20.05;;;9.85;;
37367;SDS011;23240;43.210;27.910;2022-09-30T03:45:44;18.80;;;8.52;;
37367;SDS011;23240;43.210;27.910;2022-09-30T03:48:15;23.48;;;10.45;;
37367;SDS011;23240;43.210;27.910;2022-09-30T03:50:43;25.60;;;11.55;;
37367;SDS011;23240;43.210;27.910;2022-09-30T03:53:09;19.25;;;9.73;;
37367;SDS011;23240;43.210;27.910;2022-09-30T03:55:47;20.88;;;10.85;;
37367;SDS011;23240;43.210;27.910;2022-09-30T03:58:16;17.08;;;9.25;;
37367;SDS011;23240;43.210;27.910;2022-09-30T04:00:45;25.42;;;10.35;;
37367;SDS011;23240;43.210;27.910;2022-09-30T04:03:13;18.88;;;9.90;;
37367;SDS011;23240;43.210;27.910;2022-09-30T04:05:39;17.50;;;8.95;;
37367;SDS011;23240;43.210;27.910;2022-09-30T04:08:04;34.70;;;9.23;;
37367;SDS011;23240;43.210;27.910;2022-09-30T04:10:30;21.65;;;9.05;;
37367;SDS011;23240;43.210;27.910;2022-09-30T04:12:55;22.35;;;10.23;;
37367;SDS011;23240;43.210;27.910;2022-09-30T04:15:21;24.23;;;10.95;;
37367;SDS011;23240;43.210;27.910;2022-09-30T04:17:47;18.42;;;8.82;;
37367;SDS011;23240;43.210;27.910;2022-09-30T04:20:13;17.05;;;7.85;;
37367;SDS011;23240;43.210;27.910;2022-09-30T04:22:39;21.95;;;8.98;;
37367;SDS011;23240;43.210;27.910;2022-09-30T04:25:04;33.00;;;9.15;;
37367;SDS011;23240;43.210;27.910;2022-09-30T04:27:30;24.83;;;11.10;;
37367;SDS011;23240;43.210;27.910;2022-09-30T04:29:56;17.10;;;9.40;;
37367;SDS011;23240;43.210;27.910;2022-09-30T04:32:21;23.60;;;9.75;;
37367;SDS011;23240;43.210;27.910;2022-09-30T04:34:47;19.17;;;7.97;;
37367;SDS011;23240;43.210;27.910;2022-09-30T04:37:12;14.80;;;7.82;;
37367;SDS011;23240;43.210;27.910;2022-09-30T04:39:38;14.55;;;7.63;;
37367;SDS011;23240;43.210;27.910;2022-09-30T04:42:04;22.70;;;7.95;;
37367;SDS011;23240;43.210;27.910;2022-09-30T04:44:31;17.08;;;7.18;;
37367;SDS011;23240;43.210;27.910;2022-09-30T04:46:56;17.33;;;7.63;;
37367;SDS011;23240;43.210;27.910;2022-09-30T04:49:22;15.05;;;7.53;;
37367;SDS011;23240;43.210;27.910;2022-09-30T04:51:48;18.30;;;8.82;;
37367;SDS011;23240;43.210;27.910;2022-09-30T04:54:13;11.90;;;6.75;;
37367;SDS011;23240;43.210;27.910;2022-09-30T04:56:40;14.77;;;6.88;;
37367;SDS011;23240;43.210;27.910;2022-09-30T04:59:06;10.15;;;6.05;;
37367;SDS011;23240;43.210;27.910;2022-09-30T05:01:32;13.60;;;6.63;;
37367;SDS011;23240;43.210;27.910;2022-09-30T05:03:57;11.48;;;6.13;;
37367;SDS011;23240;43.210;27.910;2022-09-30T05:06:23;13.55;;;6.68;;
37367;SDS011;23240;43.210;27.910;2022-09-30T05:08:48;16.35;;;6.38;;
37367;SDS011;23240;43.210;27.910;2022-09-30T05:11:15;11.38;;;4.95;;
37367;SDS011;23240;43.210;27.910;2022-09-30T05:13:42;13.82;;;6.05;;
37367;SDS011;23240;43.210;27.910;2022-09-30T05:16:08;7.45;;;4.47;;
37367;SDS011;23240;43.210;27.910;2022-09-30T05:18:35;13.48;;;5.10;;
37367;SDS011;23240;43.210;27.910;2022-09-30T05:21:02;11.50;;;4.68;;
37367;SDS011;23240;43.210;27.910;2022-09-30T05:23:29;9.05;;;4.72;;
37367;SDS011;23240;43.210;27.910;2022-09-30T05:25:56;17.80;;;4.97;;
37367;SDS011;23240;43.210;27.910;2022-09-30T05:28:21;9.63;;;4.43;;
37367;SDS011;23240;43.210;27.910;2022-09-30T05:30:47;7.80;;;3.75;;
37367;SDS011;23240;43.210;27.910;2022-09-30T05:33:15;10.90;;;5.15;;
37367;SDS011;23240;43.210;27.910;2022-09-30T05:35:41;10.77;;;5.43;;
37367;SDS011;23240;43.210;27.910;2022-09-30T05:38:07;8.63;;;4.22;;
37367;SDS011;23240;43.210;27.910;2022-09-30T05:40:36;8.75;;;4.40;;
37367;SDS011;23240;43.210;27.910;2022-09-30T05:43:03;6.13;;;4.18;;
37367;SDS011;23240;43.210;27.910;2022-09-30T05:45:29;14.68;;;5.60;;
37367;SDS011;23240;43.210;27.910;2022-09-30T05:47:55;13.57;;;6.20;;
37367;SDS011;23240;43.210;27.910;2022-09-30T05:50:22;16.52;;;6.05;;
37367;SDS011;23240;43.210;27.910;2022-09-30T05:52:48;12.77;;;6.03;;
37367;SDS011;23240;43.210;27.910;2022-09-30T05:55:18;12.55;;;5.72;;
37367;SDS011;23240;43.210;27.910;2022-09-30T05:57:48;14.00;;;6.53;;
37367;SDS011;23240;43.210;27.910;2022-09-30T06:00:15;16.08;;;5.90;;
37367;SDS011;23240;43.210;27.910;2022-09-30T06:02:42;15.95;;;7.00;;
37367;SDS011;23240;43.210;27.910;2022-09-30T06:05:08;10.02;;;5.65;;
37367;SDS011;23240;43.210;27.910;2022-09-30T06:07:35;16.73;;;5.90;;
37367;SDS011;23240;43.210;27.910;2022-09-30T06:10:03;11.00;;;5.18;;
37367;SDS011;23240;43.210;27.910;2022-09-30T06:12:32;17.85;;;6.00;;
37367;SDS011;23240;43.210;27.910;2022-09-30T06:14:58;11.45;;;5.03;;
37367;SDS011;23240;43.210;27.910;2022-09-30T06:17:23;13.27;;;5.55;;
37367;SDS011;23240;43.210;27.910;2022-09-30T06:19:49;10.82;;;5.53;;
37367;SDS011;23240;43.210;27.910;2022-09-30T06:22:15;12.35;;;5.15;;
37367;SDS011;23240;43.210;27.910;2022-09-30T06:24:41;8.20;;;4.57;;
37367;SDS011;23240;43.210;27.910;2022-09-30T06:27:07;14.98;;;6.45;;
37367;SDS011;23240;43.210;27.910;2022-09-30T06:29:32;13.27;;;5.88;;
37367;SDS011;23240;43.210;27.910;2022-09-30T06:31:58;9.02;;;4.55;;
37367;SDS011;23240;43.210;27.910;2022-09-30T06:34:23;12.93;;;4.45;;
37367;SDS011;23240;43.210;27.910;2022-09-30T06:36:48;11.30;;;5.13;;
37367;SDS011;23240;43.210;27.910;2022-09-30T06:39:14;18.48;;;4.93;;
37367;SDS011;23240;43.210;27.910;2022-09-30T06:41:39;10.48;;;4.88;;
37367;SDS011;23240;43.210;27.910;2022-09-30T06:44:07;11.77;;;4.97;;
37367;SDS011;23240;43.210;27.910;2022-09-30T06:46:33;11.80;;;4.57;;
37367;SDS011;23240;43.210;27.910;2022-09-30T06:48:59;8.45;;;3.83;;
37367;SDS011;23240;43.210;27.910;2022-09-30T06:51:25;10.88;;;4.28;;
37367;SDS011;23240;43.210;27.910;2022-09-30T06:53:54;8.15;;;4.32;;
37367;SDS011;23240;43.210;27.910;2022-09-30T06:56:20;12.38;;;5.32;;
37367;SDS011;23240;43.210;27.910;2022-09-30T06:58:46;12.02;;;5.00;;
37367;SDS011;23240;43.210;27.910;2022-09-30T07:01:13;26.23;;;5.60;;
37367;SDS011;23240;43.210;27.910;2022-09-30T07:03:39;10.23;;;5.55;;
37367;SDS011;23240;43.210;27.910;2022-09-30T07:06:07;8.82;;;3.88;;
37367;SDS011;23240;43.210;27.910;2022-09-30T07:08:33;10.70;;;5.63;;
37367;SDS011;23240;43.210;27.910;2022-09-30T07:11:01;11.18;;;5.20;;
37367;SDS011;23240;43.210;27.910;2022-09-30T07:13:29;8.50;;;3.85;;
37367;SDS011;23240;43.210;27.910;2022-09-30T07:15:54;8.73;;;4.00;;
37367;SDS011;23240;43.210;27.910;2022-09-30T07:18:22;18.15;;;5.28;;
37367;SDS011;23240;43.210;27.910;2022-09-30T07:20:49;13.85;;;4.30;;
37367;SDS011;23240;43.210;27.910;2022-09-30T07:23:15;13.63;;;4.03;;
37367;SDS011;23240;43.210;27.910;2022-09-30T07:26:02;8.20;;;3.20;;
37367;SDS011;23240;43.210;27.910;2022-09-30T07:28:29;8.32;;;4.15;;
37367;SDS011;23240;43.210;27.910;2022-09-30T07:30:58;8.85;;;4.07;;
37367;SDS011;23240;43.210;27.910;2022-09-30T07:33:25;8.40;;;3.90;;
37367;SDS011;23240;43.210;27.910;2022-09-30T07:35:55;9.00;;;3.83;;
37367;SDS011;23240;43.210;27.910;2022-09-30T07:38:22;9.07;;;3.65;;
37367;SDS011;23240;43.210;27.910;2022-09-30T07:40:53;6.20;;;3.22;;
37367;SDS011;23240;43.210;27.910;2022-09-30T07:43:24;9.43;;;4.10;;
37367;SDS011;23240;43.210;27.910;2022-09-30T07:45:51;6.20;;;2.92;;
37367;SDS011;23240;43.210;27.910;2022-09-30T07:48:19;4.70;;;2.63;;
37367;SDS011;23240;43.210;27.910;2022-09-30T07:51:03;7.10;;;2.92;;
37367;SDS011;23240;43.210;27.910;2022-09-30T07:53:29;19.50;;;4.68;;
37367;SDS011;23240;43.210;27.910;2022-09-30T07:55:54;4.30;;;2.63;;
37367;SDS011;23240;43.210;27.910;2022-09-30T07:58:20;2.95;;;2.45;;
37367;SDS011;23240;43.210;27.910;2022-09-30T08:00:46;12.63;;;3.25;;
37367;SDS011;23240;43.210;27.910;2022-09-30T08:03:16;7.00;;;3.38;;
37367;SDS011;23240;43.210;27.910;2022-09-30T08:05:41;4.70;;;2.78;;
37367;SDS011;23240;43.210;27.910;2022-09-30T08:08:12;4.63;;;3.20;;
37367;SDS011;23240;43.210;27.910;2022-09-30T08:10:39;18.63;;;3.28;;
37367;SDS011;23240;43.210;27.910;2022-09-30T08:13:05;6.70;;;3.13;;
37367;SDS011;23240;43.210;27.910;2022-09-30T08:15:32;7.13;;;3.17;;
37367;SDS011;23240;43.210;27.910;2022-09-30T08:17:57;6.60;;;3.05;;
37367;SDS011;23240;43.210;27.910;2022-09-30T08:20:23;5.00;;;2.75;;
37367;SDS011;23240;43.210;27.910;2022-09-30T08:22:52;6.13;;;3.13;;
37367;SDS011;23240;43.210;27.910;2022-09-30T08:25:19;5.30;;;3.28;;
37367;SDS011;23240;43.210;27.910;2022-09-30T08:27:44;2.83;;;2.40;;
37367;SDS011;23240;43.210;27.910;2022-09-30T08:30:10;4.05;;;2.55;;
37367;SDS011;23240;43.210;27.910;2022-09-30T08:32:37;3.00;;;2.20;;
37367;SDS011;23240;43.210;27.910;2022-09-30T08:35:03;2.67;;;2.22;;
37367;SDS011;23240;43.210;27.910;2022-09-30T08:37:28;3.92;;;2.40;;
37367;SDS011;23240;43.210;27.910;2022-09-30T08:39:54;5.93;;;2.90;;
37367;SDS011;23240;43.210;27.910;2022-09-30T08:53:45;21.23;;;8.75;;
37367;SDS011;23240;43.210;27.910;2022-09-30T08:56:23;8.85;;;3.90;;
37367;SDS011;23240;43.210;27.910;2022-09-30T08:58:53;12.77;;;5.18;;
37367;SDS011;23240;43.210;27.910;2022-09-30T09:01:39;14.13;;;4.68;;
37367;SDS011;23240;43.210;27.910;2022-09-30T09:04:10;5.50;;;3.05;;
37367;SDS011;23240;43.210;27.910;2022-09-30T09:09:36;7.10;;;3.40;;
37367;SDS011;23240;43.210;27.910;2022-09-30T09:12:30;6.07;;;2.95;;
37367;SDS011;23240;43.210;27.910;2022-09-30T09:15:07;6.45;;;3.38;;
37367;SDS011;23240;43.210;27.910;2022-09-30T09:20:39;6.45;;;3.20;;
37367;SDS011;23240;43.210;27.910;2022-09-30T09:23:12;6.97;;;3.28;;
37367;SDS011;23240;43.210;27.910;2022-09-30T09:25:38;8.18;;;4.03;;
37367;SDS011;23240;43.210;27.910;2022-09-30T09:30:58;7.68;;;3.78;;
37367;SDS011;23240;43.210;27.910;2022-09-30T09:33:45;6.45;;;3.53;;
37367;SDS011;23240;43.210;27.910;2022-09-30T09:45:21;5.60;;;3.35;;
37367;SDS011;23240;43.210;27.910;2022-09-30T09:47:53;4.93;;;3.03;;
37367;SDS011;23240;43.210;27.910;2022-09-30T09:50:27;4.90;;;2.95;;
37367;SDS011;23240;43.210;27.910;2022-09-30T09:55:57;4.78;;;2.83;;
37367;SDS011;23240;43.210;27.910;2022-09-30T09:58:24;6.82;;;3.45;;
37367;SDS011;23240;43.210;27.910;2022-09-30T10:00:51;10.13;;;3.75;;
37367;SDS011;23240;43.210;27.910;2022-09-30T10:03:23;6.90;;;3.40;;
37367;SDS011;23240;43.210;27.910;2022-09-30T10:06:01;22.20;;;3.63;;
37367;SDS011;23240;43.210;27.910;2022-09-30T10:08:27;10.23;;;3.65;;
37367;SDS011;23240;43.210;27.910;2022-09-30T10:10:57;8.15;;;4.05;;
37367;SDS011;23240;43.210;27.910;2022-09-30T10:13:24;9.02;;;4.18;;
37367;SDS011;23240;43.210;27.910;2022-09-30T10:16:02;7.47;;;3.83;;
37367;SDS011;23240;43.210;27.910;2022-09-30T10:18:32;7.88;;;3.80;;
37367;SDS011;23240;43.210;27.910;2022-09-30T10:21:19;8.40;;;3.75;;
37367;SDS011;23240;43.210;27.910;2022-09-30T10:23:46;9.80;;;3.67;;
37367;SDS011;23240;43.210;27.910;2022-09-30T10:28:44;8.10;;;4.03;;
37367;SDS011;23240;43.210;27.910;2022-09-30T10:33:51;6.25;;;3.33;;
37367;SDS011;23240;43.210;27.910;2022-09-30T10:36:19;8.98;;;3.78;;
37367;SDS011;23240;43.210;27.910;2022-09-30T10:38:56;6.05;;;3.35;;
37367;SDS011;23240;43.210;27.910;2022-09-30T10:41:25;8.13;;;3.28;;
37367;SDS011;23240;43.210;27.910;2022-09-30T10:43:54;9.73;;;3.83;;
37367;SDS011;23240;43.210;27.910;2022-09-30T10:48:59;6.47;;;3.53;;
37367;SDS011;23240;43.210;27.910;2022-09-30T10:51:52;6.90;;;3.28;;
37367;SDS011;23240;43.210;27.910;2022-09-30T10:54:45;6.47;;;2.92;;
37367;SDS011;23240;43.210;27.910;2022-09-30T10:57:22;4.43;;;2.70;;
37367;SDS011;23240;43.210;27.910;2022-09-30T11:02:35;4.65;;;2.78;;
37367;SDS011;23240;43.210;27.910;2022-09-30T11:21:39;5.97;;;2.70;;
37367;SDS011;23240;43.210;27.910;2022-09-30T11:29:23;6.25;;;3.30;;
37367;SDS011;23240;43.210;27.910;2022-09-30T11:31:57;7.65;;;3.50;;
37367;SDS011;23240;43.210;27.910;2022-09-30T11:58:45;7.05;;;3.60;;
37367;SDS011;23240;43.210;27.910;2022-09-30T12:03:57;5.28;;;3.10;;
37367;SDS011;23240;43.210;27.910;2022-09-30T12:06:45;14.27;;;3.85;;
37367;SDS011;23240;43.210;27.910;2022-09-30T12:09:30;6.10;;;3.65;;
37367;SDS011;23240;43.210;27.910;2022-09-30T12:12:05;7.82;;;2.90;;
37367;SDS011;23240;43.210;27.910;2022-09-30T12:14:40;3.72;;;2.42;;
37367;SDS011;23240;43.210;27.910;2022-09-30T12:17:24;4.50;;;2.90;;
37367;SDS011;23240;43.210;27.910;2022-09-30T12:19:57;2.78;;;2.50;;
37367;SDS011;23240;43.210;27.910;2022-09-30T12:22:44;3.88;;;2.60;;
37367;SDS011;23240;43.210;27.910;2022-09-30T12:25:12;3.22;;;2.40;;
37367;SDS011;23240;43.210;27.910;2022-09-30T12:27:54;6.20;;;2.97;;
37367;SDS011;23240;43.210;27.910;2022-09-30T12:31:12;5.40;;;2.70;;
37367;SDS011;23240;43.210;27.910;2022-09-30T12:33:50;6.07;;;3.20;;
37367;SDS011;23240;43.210;27.910;2022-09-30T12:37:16;5.15;;;3.00;;
37367;SDS011;23240;43.210;27.910;2022-09-30T12:45:25;3.92;;;2.50;;
37367;SDS011;23240;43.210;27.910;2022-09-30T12:47:59;6.65;;;2.53;;
37367;SDS011;23240;43.210;27.910;2022-09-30T12:50:33;4.47;;;2.58;;
37367;SDS011;23240;43.210;27.910;2022-09-30T12:56:01;4.47;;;2.83;;
37367;SDS011;23240;43.210;27.910;2022-09-30T13:03:47;3.20;;;2.25;;
37367;SDS011;23240;43.210;27.910;2022-09-30T13:06:14;5.32;;;2.33;;
37367;SDS011;23240;43.210;27.910;2022-09-30T13:11:20;3.95;;;2.28;;
37367;SDS011;23240;43.210;27.910;2022-09-30T13:19:32;3.95;;;2.20;;
37367;SDS011;23240;43.210;27.910;2022-09-30T13:32:47;1.95;;;1.58;;
37367;SDS011;23240;43.210;27.910;2022-09-30T13:35:30;2.83;;;2.00;;
37367;SDS011;23240;43.210;27.910;2022-09-30T13:38:31;4.28;;;2.35;;
37367;SDS011;23240;43.210;27.910;2022-09-30T13:43:55;2.58;;;1.13;;
37367;SDS011;23240;43.210;27.910;2022-09-30T13:49:16;3.40;;;1.52;;
37367;SDS011;23240;43.210;27.910;2022-09-30T13:51:46;2.13;;;1.65;;
37367;SDS011;23240;43.210;27.910;2022-09-30T13:54:16;3.63;;;2.20;;
37367;SDS011;23240;43.210;27.910;2022-09-30T13:56:52;2.80;;;1.73;;
37367;SDS011;23240;43.210;27.910;2022-09-30T14:12:57;5.10;;;1.60;;
37367;SDS011;23240;43.210;27.910;2022-09-30T14:21:42;2.15;;;1.95;;
37367;SDS011;23240;43.210;27.910;2022-09-30T14:24:22;4.78;;;2.20;;
37367;SDS011;23240;43.210;27.910;2022-09-30T14:32:08;1.92;;;1.40;;
37367;SDS011;23240;43.210;27.910;2022-09-30T14:34:39;1.58;;;1.48;;
37367;SDS011;23240;43.210;27.910;2022-09-30T14:37:06;2.00;;;1.85;;
37367;SDS011;23240;43.210;27.910;2022-09-30T14:39:41;9.93;;;3.85;;
37367;SDS011;23240;43.210;27.910;2022-09-30T14:42:09;5.35;;;2.33;;
37367;SDS011;23240;43.210;27.910;2022-09-30T14:44:38;3.40;;;1.50;;
37367;SDS011;23240;43.210;27.910;2022-09-30T14:47:04;1.42;;;1.33;;
37367;SDS011;23240;43.210;27.910;2022-09-30T14:49:30;2.63;;;1.63;;
37367;SDS011;23240;43.210;27.910;2022-09-30T14:51:59;4.55;;;2.47;;
37367;SDS011;23240;43.210;27.910;2022-09-30T14:54:27;2.08;;;1.58;;
37367;SDS011;23240;43.210;27.910;2022-09-30T14:56:54;4.10;;;1.90;;
37367;SDS011;23240;43.210;27.910;2022-09-30T15:01:57;2.40;;;2.00;;
37367;SDS011;23240;43.210;27.910;2022-09-30T15:04:29;3.88;;;1.67;;
37367;SDS011;23240;43.210;27.910;2022-09-30T15:06:57;2.58;;;1.67;;
37367;SDS011;23240;43.210;27.910;2022-09-30T15:12:01;1.77;;;1.67;;
37367;SDS011;23240;43.210;27.910;2022-09-30T15:14:29;2.50;;;2.00;;
37367;SDS011;23240;43.210;27.910;2022-09-30T15:16:56;3.53;;;2.33;;
37367;SDS011;23240;43.210;27.910;2022-09-30T15:19:23;10.45;;;2.63;;
37367;SDS011;23240;43.210;27.910;2022-09-30T15:21:54;2.85;;;1.92;;
37367;SDS011;23240;43.210;27.910;2022-09-30T15:24:24;3.80;;;2.17;;
37367;SDS011;23240;43.210;27.910;2022-09-30T15:26:51;2.55;;;1.55;;
37367;SDS011;23240;43.210;27.910;2022-09-30T15:29:19;4.22;;;2.00;;
37367;SDS011;23240;43.210;27.910;2022-09-30T15:31:48;5.22;;;2.05;;
37367;SDS011;23240;43.210;27.910;2022-09-30T15:34:21;3.40;;;2.00;;
37367;SDS011;23240;43.210;27.910;2022-09-30T15:36:59;3.10;;;2.13;;
37367;SDS011;23240;43.210;27.910;2022-09-30T15:39:39;3.90;;;2.60;;
37367;SDS011;23240;43.210;27.910;2022-09-30T15:42:36;2.30;;;1.27;;
37367;SDS011;23240;43.210;27.910;2022-09-30T15:48:04;2.55;;;1.42;;
37367;SDS011;23240;43.210;27.910;2022-09-30T15:50:37;6.13;;;2.42;;
37367;SDS011;23240;43.210;27.910;2022-09-30T15:53:13;5.75;;;2.35;;
37367;SDS011;23240;43.210;27.910;2022-09-30T15:55:47;2.38;;;2.05;;
37367;SDS011;23240;43.210;27.910;2022-09-30T16:03:51;3.97;;;1.95;;
37367;SDS011;23240;43.210;27.910;2022-09-30T16:09:03;2.35;;;1.55;;
37367;SDS011;23240;43.210;27.910;2022-09-30T16:11:39;4.20;;;2.38;;
37367;SDS011;23240;43.210;27.910;2022-09-30T16:14:08;5.38;;;2.72;;
37367;SDS011;23240;43.210;27.910;2022-09-30T16:16:42;19.08;;;2.35;;
37367;SDS011;23240;43.210;27.910;2022-09-30T16:19:15;4.90;;;2.53;;
37367;SDS011;23240;43.210;27.910;2022-09-30T16:21:43;2.67;;;2.05;;
37367;SDS011;23240;43.210;27.910;2022-09-30T16:26:55;8.55;;;2.70;;
37367;SDS011;23240;43.210;27.910;2022-09-30T16:29:21;5.55;;;3.10;;
37367;SDS011;23240;43.210;27.910;2022-09-30T16:31:51;3.75;;;2.28;;
37367;SDS011;23240;43.210;27.910;2022-09-30T16:34:21;3.38;;;2.13;;
37367;SDS011;23240;43.210;27.910;2022-09-30T16:36:51;5.85;;;3.03;;
37367;SDS011;23240;43.210;27.910;2022-09-30T16:39:19;8.60;;;2.15;;
37367;SDS011;23240;43.210;27.910;2022-09-30T16:41:45;5.05;;;2.40;;
37367;SDS011;23240;43.210;27.910;2022-09-30T16:44:10;3.63;;;2.50;;
37367;SDS011;23240;43.210;27.910;2022-09-30T16:46:36;3.38;;;2.22;;
37367;SDS011;23240;43.210;27.910;2022-09-30T16:49:11;3.83;;;2.22;;
37367;SDS011;23240;43.210;27.910;2022-09-30T16:51:39;3.63;;;2.42;;
37367;SDS011;23240;43.210;27.910;2022-09-30T16:54:05;7.88;;;2.67;;
37367;SDS011;23240;43.210;27.910;2022-09-30T16:56:30;3.92;;;1.95;;
37367;SDS011;23240;43.210;27.910;2022-09-30T16:58:56;5.35;;;3.00;;
37367;SDS011;23240;43.210;27.910;2022-09-30T17:01:22;5.90;;;3.33;;
37367;SDS011;23240;43.210;27.910;2022-09-30T17:03:49;6.55;;;2.67;;
37367;SDS011;23240;43.210;27.910;2022-09-30T17:06:17;3.88;;;2.53;;
37367;SDS011;23240;43.210;27.910;2022-09-30T17:08:44;5.70;;;3.00;;
37367;SDS011;23240;43.210;27.910;2022-09-30T17:11:12;8.90;;;3.28;;
37367;SDS011;23240;43.210;27.910;2022-09-30T17:13:38;5.22;;;3.17;;
37367;SDS011;23240;43.210;27.910;2022-09-30T17:16:04;4.38;;;2.88;;
37367;SDS011;23240;43.210;27.910;2022-09-30T17:18:30;5.03;;;2.65;;
37367;SDS011;23240;43.210;27.910;2022-09-30T17:20:55;4.75;;;2.90;;
37367;SDS011;23240;43.210;27.910;2022-09-30T17:23:22;6.32;;;3.42;;
37367;SDS011;23240;43.210;27.910;2022-09-30T17:25:48;6.20;;;3.17;;
37367;SDS011;23240;43.210;27.910;2022-09-30T17:28:15;6.72;;;3.30;;
37367;SDS011;23240;43.210;27.910;2022-09-30T17:30:41;8.55;;;3.42;;
37367;SDS011;23240;43.210;27.910;2022-09-30T17:33:09;5.95;;;3.28;;
37367;SDS011;23240;43.210;27.910;2022-09-30T17:35:38;7.45;;;3.42;;
37367;SDS011;23240;43.210;27.910;2022-09-30T17:38:08;4.20;;;2.88;;
37367;SDS011;23240;43.210;27.910;2022-09-30T17:40:35;4.50;;;2.70;;
37367;SDS011;23240;43.210;27.910;2022-09-30T17:43:20;7.25;;;3.28;;
37367;SDS011;23240;43.210;27.910;2022-09-30T17:45:45;18.10;;;4.22;;
37367;SDS011;23240;43.210;27.910;2022-09-30T17:48:13;7.63;;;3.03;;
37367;SDS011;23240;43.210;27.910;2022-09-30T17:50:41;6.40;;;3.40;;
37367;SDS011;23240;43.210;27.910;2022-09-30T17:53:11;7.68;;;3.55;;
37367;SDS011;23240;43.210;27.910;2022-09-30T17:55:38;8.35;;;3.65;;
37367;SDS011;23240;43.210;27.910;2022-09-30T17:58:05;5.30;;;3.40;;
37367;SDS011;23240;43.210;27.910;2022-09-30T18:00:33;7.10;;;3.60;;
37367;SDS011;23240;43.210;27.910;2022-09-30T18:03:00;5.88;;;3.72;;
37367;SDS011;23240;43.210;27.910;2022-09-30T18:05:26;7.75;;;3.63;;
37367;SDS011;23240;43.210;27.910;2022-09-30T18:07:52;13.90;;;4.45;;
37367;SDS011;23240;43.210;27.910;2022-09-30T18:10:18;11.50;;;4.60;;
37367;SDS011;23240;43.210;27.910;2022-09-30T18:12:44;13.13;;;4.20;;
37367;SDS011;23240;43.210;27.910;2022-09-30T18:15:13;7.20;;;3.58;;
37367;SDS011;23240;43.210;27.910;2022-09-30T18:17:38;7.90;;;3.92;;
37367;SDS011;23240;43.210;27.910;2022-09-30T18:20:04;6.35;;;3.67;;
37367;SDS011;23240;43.210;27.910;2022-09-30T18:22:30;6.40;;;3.45;;
37367;SDS011;23240;43.210;27.910;2022-09-30T18:24:55;13.07;;;5.57;;
37367;SDS011;23240;43.210;27.910;2022-09-30T18:27:39;14.35;;;5.15;;
37367;SDS011;23240;43.210;27.910;2022-09-30T18:30:05;9.13;;;4.80;;
37367;SDS011;23240;43.210;27.910;2022-09-30T18:32:31;13.13;;;4.72;;
37367;SDS011;23240;43.210;27.910;2022-09-30T18:34:57;8.77;;;3.78;;
37367;SDS011;23240;43.210;27.910;2022-09-30T18:37:23;6.47;;;3.35;;
37367;SDS011;23240;43.210;27.910;2022-09-30T18:39:49;9.05;;;4.20;;
37367;SDS011;23240;43.210;27.910;2022-09-30T18:42:15;7.55;;;3.83;;
37367;SDS011;23240;43.210;27.910;2022-09-30T18:44:43;7.32;;;3.88;;
37367;SDS011;23240;43.210;27.910;2022-09-30T18:47:08;8.50;;;4.20;;
37367;SDS011;23240;43.210;27.910;2022-09-30T18:49:34;12.02;;;4.88;;